createdAt,value
2023-05-10T00:01:42.814Z,99.90
2023-05-10T00:04:10.006Z,99.90
2023-05-10T00:06:36.929Z,99.90
2023-05-10T00:09:04.565Z,99.90
2023-05-10T00:11:31.446Z,99.90
2023-05-10T00:13:58.331Z,99.90
2023-05-10T00:16:25.254Z,99.90
2023-05-10T00:18:52.145Z,99.90
2023-05-10T00:21:18.982Z,99.90
2023-05-10T00:23:45.815Z,99.90
2023-05-10T00:26:12.682Z,99.90
2023-05-10T00:28:39.528Z,99.90
2023-05-10T00:31:06.450Z,99.90
2023-05-10T00:33:33.229Z,99.90
2023-05-10T00:36:00.060Z,99.90
2023-05-10T00:38:27.046Z,99.90
2023-05-10T00:40:53.882Z,99.90
2023-05-10T00:43:20.704Z,99.90
2023-05-10T00:45:47.786Z,99.90
2023-05-10T00:48:17.901Z,99.90
2023-05-10T00:50:45.820Z,99.90
2023-05-10T00:53:13.244Z,99.90
2023-05-10T00:55:40.310Z,99.90
2023-05-10T00:58:07.190Z,99.90
2023-05-10T01:00:35.324Z,99.90
2023-05-10T01:03:02.814Z,99.90
2023-05-10T01:05:29.738Z,99.90
2023-05-10T01:07:57.628Z,99.90
2023-05-10T01:10:24.618Z,99.90
2023-05-10T01:12:51.932Z,99.90
2023-05-10T01:15:21.114Z,99.90
2023-05-10T01:17:49.146Z,99.90
2023-05-10T01:20:17.760Z,99.90
2023-05-10T01:23:18.709Z,99.90
2023-05-10T01:26:24.205Z,99.90
2023-05-10T01:29:09.534Z,99.90
2023-05-10T01:32:13.635Z,99.90
2023-05-10T01:35:01.008Z,99.90
2023-05-10T01:37:42.025Z,99.90
2023-05-10T01:40:31.368Z,99.90
2023-05-10T01:43:05.127Z,99.90
2023-05-10T01:45:51.882Z,99.90
2023-05-10T01:48:20.860Z,99.90
2023-05-10T01:50:49.023Z,99.90
2023-05-10T01:53:19.931Z,99.90
2023-05-10T01:55:50.553Z,99.90
2023-05-10T01:58:24.889Z,99.90
2023-05-10T02:00:54.331Z,99.90
2023-05-10T02:03:24.659Z,99.90
2023-05-10T02:05:53.039Z,99.90
2023-05-10T02:08:21.215Z,99.90
2023-05-10T02:10:50.711Z,99.90
2023-05-10T02:13:19.063Z,99.90
2023-05-10T02:15:49.023Z,99.90
2023-05-10T02:18:17.181Z,99.90
2023-05-10T02:20:47.475Z,99.90
2023-05-10T02:23:18.055Z,99.90
2023-05-10T02:25:46.024Z,99.90
2023-05-10T02:28:14.254Z,99.90
2023-05-10T02:30:41.450Z,99.90
2023-05-10T02:33:09.053Z,99.90
2023-05-10T02:35:37.002Z,99.90
2023-05-10T02:38:05.218Z,99.90
2023-05-10T02:40:33.518Z,99.90
2023-05-10T02:43:02.539Z,99.90
2023-05-10T02:45:32.240Z,99.90
2023-05-10T02:47:59.667Z,99.90
2023-05-10T02:50:30.187Z,99.90
2023-05-10T02:53:03.027Z,99.90
2023-05-10T02:55:36.528Z,99.90
2023-05-10T02:58:04.192Z,99.90
2023-05-10T03:00:31.027Z,99.90
2023-05-10T03:02:58.086Z,99.90
2023-05-10T03:05:25.044Z,99.90
2023-05-10T03:07:53.105Z,99.90
2023-05-10T03:10:21.063Z,99.90
2023-05-10T03:13:02.798Z,99.90
2023-05-10T03:15:52.866Z,99.90
2023-05-10T03:18:43.260Z,99.90
2023-05-10T03:21:13.479Z,99.90
2023-05-10T03:23:53.455Z,99.90
2023-05-10T03:26:26.943Z,99.90
2023-05-10T03:28:54.654Z,99.90
2023-05-10T03:31:22.287Z,99.90
2023-05-10T03:33:53.285Z,99.90
2023-05-10T03:36:20.637Z,99.90
2023-05-10T03:38:47.504Z,99.90
2023-05-10T03:41:14.970Z,99.90
2023-05-10T03:43:42.555Z,99.90
2023-05-10T03:46:09.574Z,99.90
2023-05-10T03:48:36.611Z,99.90
2023-05-10T03:51:03.472Z,99.90
2023-05-10T03:53:30.253Z,99.90
2023-05-10T03:55:57.101Z,99.90
2023-05-10T03:58:24.082Z,99.90
2023-05-10T04:00:52.118Z,99.90
2023-05-10T04:03:19.390Z,99.90
2023-05-10T04:05:46.362Z,99.90
2023-05-10T04:08:13.274Z,99.90
2023-05-10T04:10:40.769Z,99.90
2023-05-10T04:13:07.581Z,99.90
2023-05-10T04:15:34.761Z,99.90
2023-05-10T04:18:01.969Z,99.90
2023-05-10T04:20:29.018Z,99.90
2023-05-10T04:22:56.047Z,99.90
2023-05-10T04:25:22.750Z,99.90
2023-05-10T04:27:49.553Z,99.90
2023-05-10T04:30:16.510Z,99.90
2023-05-10T04:32:43.569Z,99.90
2023-05-10T04:35:12.657Z,99.90
2023-05-10T04:37:39.437Z,99.90
2023-05-10T04:40:07.427Z,99.90
2023-05-10T04:42:34.277Z,99.90
2023-05-10T04:45:01.347Z,99.90
2023-05-10T04:47:28.108Z,99.90
2023-05-10T04:49:55.031Z,99.90
2023-05-10T04:52:22.865Z,99.90
2023-05-10T04:54:49.903Z,99.90
2023-05-10T04:57:16.703Z,99.90
2023-05-10T04:59:43.817Z,99.90
2023-05-10T05:02:10.818Z,99.90
2023-05-10T05:04:37.796Z,99.90
2023-05-10T05:07:04.577Z,99.90
2023-05-10T05:09:36.221Z,99.90
2023-05-10T05:12:03.078Z,99.90
2023-05-10T05:14:29.941Z,99.90
2023-05-10T05:16:57.712Z,99.90
2023-05-10T05:19:24.592Z,99.90
2023-05-10T05:21:51.466Z,99.90
2023-05-10T05:24:18.260Z,99.90
2023-05-10T05:26:45.176Z,99.90
2023-05-10T05:29:11.997Z,99.90
2023-05-10T05:31:38.868Z,99.90
2023-05-10T05:34:05.867Z,99.90
2023-05-10T05:36:32.792Z,99.90
2023-05-10T05:38:59.636Z,99.90
2023-05-10T05:41:27.047Z,99.90
2023-05-10T05:43:53.946Z,99.90
2023-05-10T05:46:20.846Z,99.90
2023-05-10T05:48:47.817Z,99.90
2023-05-10T05:51:15.992Z,99.90
2023-05-10T05:53:42.880Z,99.90
2023-05-10T05:56:10.710Z,99.90
2023-05-10T05:58:37.469Z,99.90
2023-05-10T06:01:04.415Z,99.90
2023-05-10T06:03:31.393Z,99.90
2023-05-10T06:05:58.589Z,99.90
2023-05-10T06:08:25.680Z,99.90
2023-05-10T06:10:52.531Z,99.90
2023-05-10T06:13:19.516Z,99.90
2023-05-10T06:15:46.509Z,99.90
2023-05-10T06:18:13.430Z,99.90
2023-05-10T06:20:41.993Z,99.90
2023-05-10T06:23:08.815Z,99.90
2023-05-10T06:25:35.560Z,99.90
2023-05-10T06:28:03.156Z,99.90
2023-05-10T06:30:30.447Z,99.90
2023-05-10T06:32:57.669Z,99.90
2023-05-10T06:35:24.727Z,99.90
2023-05-10T06:37:52.601Z,99.90
2023-05-10T06:40:20.392Z,99.90
2023-05-10T06:42:48.484Z,99.90
2023-05-10T06:45:17.128Z,99.90
2023-05-10T06:47:44.760Z,99.90
2023-05-10T06:50:14.802Z,99.90
2023-05-10T06:52:44.101Z,99.90
2023-05-10T06:55:11.668Z,99.90
2023-05-10T06:57:38.477Z,99.90
2023-05-10T07:00:06.454Z,99.90
2023-05-10T07:02:33.717Z,99.90
2023-05-10T07:05:02.869Z,99.90
2023-05-10T07:07:30.768Z,99.90
2023-05-10T07:09:58.985Z,99.90
2023-05-10T07:12:26.509Z,99.90
2023-05-10T07:14:53.610Z,99.90
2023-05-10T07:17:20.644Z,99.90
2023-05-10T07:19:47.635Z,99.90
2023-05-10T07:22:14.430Z,99.90
2023-05-10T07:24:41.813Z,99.90
2023-05-10T07:27:09.010Z,99.90
2023-05-10T07:29:36.491Z,99.90
2023-05-10T07:32:03.344Z,99.90
2023-05-10T07:34:31.414Z,99.90
2023-05-10T07:37:00.460Z,99.90
2023-05-10T07:39:28.428Z,99.90
2023-05-10T07:41:56.324Z,99.90
2023-05-10T07:44:23.375Z,99.90
2023-05-10T07:46:50.230Z,99.90
2023-05-10T07:49:17.725Z,99.90
2023-05-10T07:51:44.646Z,99.90
2023-05-10T07:54:11.794Z,99.90
2023-05-10T07:56:38.735Z,99.90
2023-05-10T07:59:07.399Z,99.90
2023-05-10T08:01:35.435Z,99.90
2023-05-10T08:04:03.080Z,99.90
2023-05-10T08:06:31.200Z,99.90
2023-05-10T08:08:58.648Z,99.90
2023-05-10T08:11:27.992Z,99.90
2023-05-10T08:13:55.119Z,99.90
2023-05-10T08:16:22.104Z,99.90
2023-05-10T08:18:50.521Z,99.90
2023-05-10T08:21:17.545Z,99.90
2023-05-10T08:23:47.100Z,99.90
2023-05-10T08:26:13.887Z,99.90
2023-05-10T08:28:41.121Z,99.90
2023-05-10T08:31:09.039Z,99.90
2023-05-10T08:33:37.077Z,99.90
2023-05-10T08:36:04.100Z,99.90
2023-05-10T08:38:30.982Z,99.90
2023-05-10T08:40:59.471Z,99.90
2023-05-10T08:43:31.604Z,99.90
2023-05-10T08:46:05.312Z,99.90
2023-05-10T08:48:35.570Z,99.90
2023-05-10T08:51:04.460Z,99.90
2023-05-10T08:53:34.112Z,99.90
2023-05-10T08:56:03.021Z,99.90
2023-05-10T08:58:30.015Z,99.90
2023-05-10T09:00:58.084Z,99.90
2023-05-10T09:03:24.951Z,99.90
2023-05-10T09:05:51.976Z,99.90
2023-05-10T09:08:19.338Z,99.90
2023-05-10T09:10:48.441Z,99.90
2023-05-10T09:13:16.628Z,99.90
2023-05-10T09:15:45.907Z,99.90
2023-05-10T09:18:13.602Z,99.90
2023-05-10T09:20:43.452Z,99.90
2023-05-10T09:23:12.157Z,99.90
2023-05-10T09:25:39.910Z,99.90
2023-05-10T09:28:10.697Z,99.90
2023-05-10T09:30:37.752Z,99.90
2023-05-10T09:33:04.923Z,99.90
2023-05-10T09:38:04.024Z,99.90
2023-05-10T09:40:32.078Z,99.90
2023-05-10T09:43:00.977Z,99.90
2023-05-10T09:45:32.749Z,99.90
2023-05-10T09:48:01.847Z,99.90
2023-05-10T09:50:29.448Z,99.90
2023-05-10T09:52:59.398Z,99.90
2023-05-10T09:55:41.233Z,99.90
2023-05-10T09:58:11.754Z,99.90
2023-05-10T10:00:43.811Z,99.90
2023-05-10T10:03:42.589Z,99.90
2023-05-10T10:06:18.941Z,99.90
2023-05-10T10:08:56.824Z,99.90
2023-05-10T10:11:25.325Z,99.90
2023-05-10T10:13:52.482Z,99.90
2023-05-10T10:16:19.464Z,99.90
2023-05-10T10:18:46.491Z,99.90
2023-05-10T10:21:16.000Z,99.90
2023-05-10T10:23:42.930Z,99.90
2023-05-10T10:26:10.193Z,99.90
2023-05-10T10:28:46.522Z,99.90
2023-05-10T10:31:27.538Z,99.90
2023-05-10T10:34:00.666Z,99.90
2023-05-10T10:36:30.498Z,99.90
2023-05-10T10:39:00.770Z,99.90
2023-05-10T10:41:35.800Z,99.90
2023-05-10T10:44:29.923Z,99.90
2023-05-10T10:47:03.907Z,99.90
2023-05-10T10:49:38.996Z,99.90
2023-05-10T10:52:27.692Z,99.90
2023-05-10T10:55:05.066Z,99.90
2023-05-10T10:58:01.678Z,99.90
2023-05-10T11:00:41.054Z,99.90
2023-05-10T11:03:15.916Z,99.90
2023-05-10T11:05:51.096Z,99.90
2023-05-10T11:08:31.199Z,99.90
2023-05-10T11:11:01.156Z,99.90
2023-05-10T11:13:51.669Z,99.90
2023-05-10T11:16:27.904Z,99.90
2023-05-10T11:19:05.510Z,99.90
2023-05-10T11:21:33.841Z,99.90
2023-05-10T11:24:01.864Z,99.90
2023-05-10T11:26:35.730Z,99.50
2023-05-10T11:29:04.147Z,99.10
2023-05-10T11:31:31.253Z,99.40
2023-05-10T11:33:59.856Z,98.90
2023-05-10T11:36:29.018Z,98.20
2023-05-10T11:38:57.418Z,97.90
2023-05-10T11:41:26.040Z,98.20
2023-05-10T11:43:54.856Z,98.50
2023-05-10T11:46:24.304Z,99.20
2023-05-10T11:48:52.782Z,99.30
2023-05-10T11:51:24.357Z,99.70
2023-05-10T11:53:54.086Z,99.80
2023-05-10T11:56:22.811Z,99.90
2023-05-10T11:58:57.857Z,99.90
2023-05-10T12:01:26.040Z,99.90
2023-05-10T12:03:54.935Z,99.90
2023-05-10T12:06:22.447Z,99.90
2023-05-10T12:08:53.608Z,99.90
2023-05-10T12:11:22.703Z,99.90
2023-05-10T12:13:50.958Z,99.80
2023-05-10T12:16:22.868Z,98.60
2023-05-10T12:18:54.664Z,97.40
2023-05-10T12:21:22.367Z,97.20
2023-05-10T12:23:54.007Z,96.20
2023-05-10T12:26:25.894Z,94.90
2023-05-10T12:28:53.772Z,94.30
2023-05-10T12:31:20.822Z,93.70
2023-05-10T12:33:48.470Z,92.50
2023-05-10T12:36:16.587Z,92.20
2023-05-10T12:38:45.563Z,91.60
2023-05-10T12:41:14.149Z,90.90
2023-05-10T12:43:41.707Z,89.70
2023-05-10T12:46:14.123Z,90.20
2023-05-10T12:48:42.393Z,88.30
2023-05-10T12:51:10.623Z,88.60
2023-05-10T12:53:37.812Z,89.40
2023-05-10T12:56:04.926Z,89.90
2023-05-10T12:58:36.077Z,89.70
2023-05-10T13:01:03.645Z,90.10
2023-05-10T13:03:30.674Z,90.60
2023-05-10T13:05:57.576Z,91.00
2023-05-10T13:08:24.492Z,91.10
2023-05-10T13:10:51.420Z,91.20
2023-05-10T13:13:19.438Z,91.50
2023-05-10T13:15:46.553Z,91.80
2023-05-10T13:18:13.598Z,92.10
2023-05-10T13:20:40.639Z,92.60
2023-05-10T13:23:07.645Z,93.20
2023-05-10T13:25:35.693Z,93.60
2023-05-10T13:28:02.850Z,94.20
2023-05-10T13:30:29.977Z,94.50
2023-05-10T13:32:56.822Z,94.90
2023-05-10T13:35:23.904Z,95.30
2023-05-10T13:37:50.849Z,95.80
2023-05-10T13:40:18.367Z,96.20
2023-05-10T13:42:46.996Z,96.80
2023-05-10T13:45:14.245Z,97.40
2023-05-10T13:47:42.201Z,98.10
2023-05-10T13:50:09.546Z,98.60
2023-05-10T13:52:36.564Z,98.90
2023-05-10T13:55:03.898Z,99.20
2023-05-10T13:57:31.457Z,99.60
2023-05-10T13:59:58.880Z,99.90
2023-05-10T14:02:26.859Z,99.90
2023-05-10T14:04:53.803Z,99.90
2023-05-10T14:07:21.012Z,99.90
2023-05-10T14:09:47.938Z,99.90
2023-05-10T14:12:15.572Z,99.90
2023-05-10T14:14:42.426Z,99.90
2023-05-10T14:17:11.429Z,99.90
2023-05-10T14:19:40.603Z,99.90
2023-05-10T14:22:07.459Z,99.90
2023-05-10T14:24:34.316Z,99.90
2023-05-10T14:27:01.688Z,99.90
2023-05-10T14:29:28.805Z,99.90
2023-05-10T14:31:55.744Z,99.90
2023-05-10T14:34:22.719Z,99.90
2023-05-10T14:36:49.582Z,99.90
2023-05-10T14:39:16.698Z,99.90
2023-05-10T14:41:45.796Z,99.90
2023-05-10T14:44:12.997Z,99.90
2023-05-10T14:46:40.595Z,99.90
2023-05-10T14:49:07.514Z,99.90
2023-05-10T14:51:34.610Z,99.90
2023-05-10T14:54:01.712Z,99.90
2023-05-10T14:56:28.944Z,99.90
2023-05-10T14:58:56.531Z,99.90
2023-05-10T15:01:24.600Z,99.90
2023-05-10T15:03:52.186Z,99.90
2023-05-10T15:06:26.264Z,99.90
2023-05-10T15:08:54.400Z,99.90
2023-05-10T15:11:27.550Z,99.90
2023-05-10T15:13:54.605Z,99.90
2023-05-10T15:16:24.267Z,99.90
2023-05-10T15:18:53.864Z,99.90
2023-05-10T15:21:20.844Z,99.90
2023-05-10T15:23:47.811Z,99.90
2023-05-10T15:26:14.669Z,99.90
2023-05-10T15:28:41.702Z,99.90
2023-05-10T15:31:08.684Z,99.90
2023-05-10T15:33:35.941Z,99.90
2023-05-10T15:36:05.118Z,99.90
2023-05-10T15:38:32.567Z,99.70
2023-05-10T15:40:59.588Z,99.20
2023-05-10T15:43:26.491Z,98.70
2023-05-10T15:45:53.398Z,98.50
2023-05-10T15:48:20.250Z,98.40
2023-05-10T15:50:47.278Z,98.40
2023-05-10T15:53:14.469Z,98.40
2023-05-10T15:55:41.338Z,98.50
2023-05-10T15:58:11.293Z,98.20
2023-05-10T16:00:39.230Z,98.10
2023-05-10T16:03:06.964Z,98.40
2023-05-10T16:05:34.130Z,98.70
2023-05-10T16:08:01.849Z,98.60
2023-05-10T16:10:31.903Z,98.30
2023-05-10T16:13:01.155Z,98.40
2023-05-10T16:15:28.170Z,98.30
2023-05-10T16:17:55.412Z,98.40
2023-05-10T16:20:24.541Z,98.20
2023-05-10T16:22:51.510Z,97.60
2023-05-10T16:25:21.698Z,97.10
2023-05-10T16:27:48.629Z,96.80
2023-05-10T16:35:47.945Z,96.90
2023-05-10T16:38:15.154Z,96.70
2023-05-10T16:40:42.213Z,96.60
2023-05-10T16:43:09.038Z,96.70
2023-05-10T16:45:35.996Z,97.00
2023-05-10T16:48:03.394Z,97.30
2023-05-10T16:50:30.191Z,97.40
2023-05-10T16:52:57.156Z,97.30
2023-05-10T16:55:26.478Z,97.20
2023-05-10T16:57:58.821Z,97.20
2023-05-10T17:00:26.637Z,97.30
2023-05-10T17:02:55.048Z,97.30
2023-05-10T17:05:22.761Z,97.30
2023-05-10T17:07:50.553Z,97.60
2023-05-10T17:10:17.926Z,97.80
2023-05-10T17:12:45.438Z,97.90
2023-05-10T17:15:12.695Z,98.20
2023-05-10T17:17:39.648Z,98.30
2023-05-10T17:20:07.407Z,98.30
2023-05-10T17:22:34.470Z,98.60
2023-05-10T17:25:01.558Z,99.00
2023-05-10T17:27:30.390Z,99.10
2023-05-10T17:29:58.356Z,99.20
2023-05-10T17:32:26.428Z,99.20
2023-05-10T17:34:53.403Z,99.20
2023-05-10T17:37:20.309Z,99.40
2023-05-10T17:39:47.128Z,99.50
2023-05-10T17:42:16.319Z,99.60
2023-05-10T17:44:43.606Z,99.70
2023-05-10T17:47:10.532Z,99.70
2023-05-10T17:49:37.503Z,99.70
2023-05-10T17:52:04.402Z,99.70
2023-05-10T17:54:31.372Z,99.90
2023-05-10T17:56:59.361Z,99.90
2023-05-10T17:59:26.332Z,99.90
2023-05-10T18:01:53.336Z,99.90
2023-05-10T18:04:20.669Z,99.90
2023-05-10T18:06:47.898Z,99.80
2023-05-10T18:09:16.224Z,99.90
2023-05-10T18:11:43.100Z,99.90
2023-05-10T18:14:09.994Z,99.90
2023-05-10T18:16:36.933Z,99.90
2023-05-10T18:19:04.123Z,99.90
2023-05-10T18:21:32.802Z,99.90
2023-05-10T18:23:59.806Z,99.90
2023-05-10T18:26:26.884Z,99.90
2023-05-10T18:28:53.848Z,99.90
2023-05-10T18:31:21.034Z,99.90
2023-05-10T18:33:48.233Z,99.90
2023-05-10T18:36:15.204Z,99.90
2023-05-10T18:38:42.014Z,99.90
2023-05-10T18:41:12.494Z,99.90
2023-05-10T18:43:39.450Z,99.90
2023-05-10T18:46:06.337Z,99.90
2023-05-10T18:48:33.258Z,99.90
2023-05-10T18:51:00.155Z,99.90
2023-05-10T18:53:28.562Z,99.90
2023-05-10T18:55:59.610Z,99.90
2023-05-10T18:58:29.896Z,99.90
2023-05-10T19:00:57.147Z,99.90
2023-05-10T19:03:24.598Z,99.90
2023-05-10T19:05:55.494Z,99.90
2023-05-10T19:08:23.873Z,99.90
2023-05-10T19:10:53.698Z,99.90
2023-05-10T19:13:20.811Z,99.90
2023-05-10T19:16:04.590Z,99.90
2023-05-10T19:18:32.345Z,99.90
2023-05-10T19:21:03.779Z,99.90
2023-05-10T19:23:34.972Z,99.90
2023-05-10T19:26:03.112Z,99.90
2023-05-10T19:28:32.121Z,99.90
2023-05-10T19:31:03.834Z,99.90
2023-05-10T19:33:30.912Z,99.90
2023-05-10T19:35:57.895Z,99.90
2023-05-10T19:38:25.806Z,99.90
2023-05-10T19:40:58.679Z,99.90
2023-05-10T19:43:31.462Z,99.90
2023-05-10T19:46:03.569Z,99.90
2023-05-10T19:48:31.302Z,99.90
2023-05-10T19:51:03.348Z,99.90
2023-05-10T19:53:31.218Z,99.90
2023-05-10T19:56:04.119Z,99.90
2023-05-10T19:58:31.228Z,99.90
2023-05-10T20:00:58.309Z,99.90
2023-05-10T20:03:25.429Z,99.90
2023-05-10T20:05:52.517Z,99.90
2023-05-10T20:08:19.500Z,99.90
2023-05-10T20:10:46.646Z,99.90
2023-05-10T20:13:13.798Z,99.90
2023-05-10T20:15:40.707Z,99.90
2023-05-10T20:18:08.882Z,99.90
2023-05-10T20:20:38.479Z,99.90
2023-05-10T20:23:05.533Z,99.90
2023-05-10T20:25:40.244Z,99.90
2023-05-10T20:28:08.578Z,99.90
2023-05-10T20:30:35.798Z,99.90
2023-05-10T20:33:04.211Z,99.90
2023-05-10T20:35:32.308Z,99.90
2023-05-10T20:38:00.184Z,99.90
2023-05-10T20:43:06.033Z,99.90
2023-05-10T20:45:33.308Z,99.90
2023-05-10T20:48:00.898Z,99.90
2023-05-10T20:50:27.983Z,99.90
2023-05-10T20:52:55.152Z,99.90
2023-05-10T20:55:22.472Z,99.90
2023-05-10T20:57:49.286Z,99.90
2023-05-10T21:00:16.683Z,99.90
2023-05-10T21:02:45.780Z,99.90
2023-05-10T21:05:12.820Z,99.90
2023-05-10T21:07:39.973Z,99.90
2023-05-10T21:10:08.351Z,99.90
2023-05-10T21:12:35.361Z,99.90
2023-05-10T21:15:02.841Z,99.90
2023-05-10T21:17:29.781Z,99.90
2023-05-10T21:19:56.737Z,99.90
2023-05-10T21:22:23.574Z,99.90
2023-05-10T21:24:50.435Z,99.90
2023-05-10T21:27:17.307Z,99.90
2023-05-10T21:29:44.326Z,99.90
2023-05-10T21:32:11.427Z,99.90
2023-05-10T21:34:38.422Z,99.90
2023-05-10T21:37:05.414Z,99.90
2023-05-10T21:39:32.224Z,99.90
2023-05-10T21:42:00.292Z,99.90
2023-05-10T21:44:27.193Z,99.90
2023-05-10T21:46:54.064Z,99.90
2023-05-10T21:49:20.871Z,99.90
2023-05-10T21:51:48.655Z,99.90
2023-05-10T21:54:15.611Z,99.90
2023-05-10T21:56:42.625Z,99.90
2023-05-10T21:59:09.530Z,99.90
2023-05-10T22:01:36.374Z,99.90
2023-05-10T22:04:03.316Z,99.90
2023-05-10T22:06:30.101Z,99.90
2023-05-10T22:08:56.898Z,99.90
2023-05-10T22:11:24.208Z,99.90
2023-05-10T22:13:51.049Z,99.90
2023-05-10T22:16:18.078Z,99.90
2023-05-10T22:18:45.006Z,99.90
2023-05-10T22:21:11.920Z,99.90
2023-05-10T22:23:38.744Z,99.90
2023-05-10T22:26:05.612Z,99.90
2023-05-10T22:28:32.478Z,99.90
2023-05-10T22:30:59.281Z,99.90
2023-05-10T22:33:26.153Z,99.90
2023-05-10T22:35:53.080Z,99.90
2023-05-10T22:38:20.075Z,99.90
2023-05-10T22:40:46.934Z,99.90
2023-05-10T22:43:13.863Z,99.90
2023-05-10T22:45:40.763Z,99.90
2023-05-10T22:48:09.577Z,99.90
2023-05-10T22:50:37.090Z,99.90
2023-05-10T22:53:04.075Z,99.90
2023-05-10T22:55:31.048Z,99.90
2023-05-10T22:57:58.027Z,99.90
2023-05-10T23:00:24.927Z,99.90
2023-05-10T23:02:52.172Z,99.90
2023-05-10T23:05:19.316Z,99.90
2023-05-10T23:07:48.586Z,99.90
2023-05-10T23:10:15.552Z,99.90
2023-05-10T23:12:42.485Z,99.90
2023-05-10T23:15:11.737Z,99.90
2023-05-10T23:17:38.865Z,99.90
2023-05-10T23:20:06.377Z,99.90
2023-05-10T23:22:33.190Z,99.90
2023-05-10T23:24:59.998Z,99.90
2023-05-10T23:27:30.625Z,99.90
2023-05-10T23:29:57.883Z,99.90
2023-05-10T23:32:24.979Z,99.90
2023-05-10T23:34:52.231Z,99.90
2023-05-10T23:37:19.270Z,99.90
2023-05-10T23:39:46.225Z,99.90
2023-05-10T23:42:13.094Z,99.90
2023-05-10T23:44:40.015Z,99.90
2023-05-10T23:47:07.280Z,99.90
2023-05-10T23:49:34.288Z,99.90
2023-05-10T23:52:01.311Z,99.90
2023-05-10T23:54:28.675Z,99.90
2023-05-10T23:56:55.560Z,99.90
2023-05-10T23:59:22.475Z,99.90
